Auburn, California
Current Conditions -  °F | °C
As of 10:15 PM on Saturday 25 Oct 2014 (Local Time) from KAUN Reporting Station
Broken Clouds Broken Clouds  
Wind Chill: 55°   Ceiling: 11000
Heat Index: 55°   Visibility: 10mi
Dew Point: 55°   Wind: 6mph
Humidity: 100%   Direction: 170°S
Pressure: 30.13"   Gusts: NA
Location:  38.9°N, 121.07°W
Report Text: KAUN 260515Z AUTO 17005KT 10SM FEW032 FEW050 BKN110 13/13 A3013 RMK AO1
Loading
Personal Weather Stations






























Interactive Weather Map
Tropical Storm Tracking
New forecast layout! Learn more

10-Day Weather Forecast

Advertisements
Track Severe Weather on mobile